»·PEaware :: N5GL A20-KSNA

N5GL :: A20-KSNA

FLIGHT INFORMATION

Flight Status: Arrived
Operator: Privately registered:
United States
More flights under this callsign
Pilot: Georg L. (13308)
Aircraft: SOCATA TBM-900
(TBM9)
More flights by this aircraft type
Origin: A20 Sun Valley
United States
Destination: KSNA John Wayne-Orange Co
United States
More flights between these airports :: More routes between these airports
Route: +EED DSNEE4
File this flight plan on PilotEdge
Remarks:
Altitude:
(Current/Filed)
24,000ft
Speed:
(Current/Filed)
311kts
Departed: 18-Apr-20 07:19 AM
Arrived: 18-Apr-20 08:14 AM
Distance/Time
Traveled:
182nm/0:54
Distance/Time
To Go:
Arrived

Flight Plot

Page will automatically refresh every two minutes.

Flight plan parsing failed; only flown route is shown


Map Options




Map Legend


Flown Route
Filed Route
Departure Airport
Arrival Airport
Navaid (VOR, NDB)
Fix

Horizontal Profiles

Position Reports

Time Latitude Longitude Heading Altitude Ground
Speed
18-Apr-20 07:00 35.007430 -114.564156 266 709ft 0kts
18-Apr-20 07:01 35.007430 -114.564156 266 709ft 0kts
18-Apr-20 07:02 35.007430 -114.564156 266 709ft 0kts
18-Apr-20 07:03 35.007430 -114.564156 266 709ft 0kts
18-Apr-20 07:04 35.007430 -114.564156 266 709ft 0kts
18-Apr-20 07:05 35.007430 -114.564156 266 709ft 0kts
18-Apr-20 07:06 35.007431 -114.564349 271 707ft 0kts
18-Apr-20 07:07 35.007431 -114.564351 271 707ft 0kts
18-Apr-20 07:08 35.007431 -114.564351 271 707ft 0kts
18-Apr-20 07:09 35.007431 -114.564351 271 707ft 0kts
18-Apr-20 07:10 35.007431 -114.564351 271 707ft 0kts
18-Apr-20 07:11 35.007431 -114.564351 271 707ft 0kts
18-Apr-20 07:12 35.007431 -114.564351 271 707ft 0kts
18-Apr-20 07:13 35.007431 -114.564351 271 707ft 0kts
18-Apr-20 07:14 35.007431 -114.564351 271 707ft 0kts
18-Apr-20 07:15 35.007650 -114.564506 358 708ft 0kts
18-Apr-20 07:16 35.007650 -114.564506 358 708ft 0kts
18-Apr-20 07:17 35.010372 -114.564505 0 727ft 11kts
18-Apr-20 07:18 35.006069 -114.565046 181 719ft 105kts
18-Apr-20 07:19 34.966614 -114.570225 188 2542ft 174kts
18-Apr-20 07:20 34.917886 -114.560226 156 4537ft 191kts
18-Apr-20 07:22 34.870151 -114.532909 158 6703ft 191kts
18-Apr-20 07:23 34.821318 -114.505319 158 8709ft 198kts
18-Apr-20 07:24 34.770642 -114.477337 170 10564ft 201kts
18-Apr-20 07:25 34.735049 -114.520826 235 12460ft 194kts
18-Apr-20 07:26 34.702675 -114.573261 233 14507ft 194kts
18-Apr-20 07:27 34.669772 -114.624939 234 16542ft 194kts
18-Apr-20 07:28 34.636649 -114.676738 234 18509ft 194kts
18-Apr-20 07:29 34.603414 -114.728621 235 20442ft 196kts
18-Apr-20 07:30 34.569982 -114.780739 236 22284ft 197kts
18-Apr-20 07:31 34.534146 -114.836582 235 22970ft 232kts
18-Apr-20 07:32 34.492180 -114.901731 235 22958ft 252kts
18-Apr-20 07:33 34.448732 -114.969102 235 22954ft 255kts
18-Apr-20 07:34 34.404762 -115.037214 235 22953ft 256kts
18-Apr-20 07:35 34.360639 -115.105443 235 22952ft 258kts
18-Apr-20 07:36 34.316111 -115.174146 235 22952ft 260kts
18-Apr-20 07:37 34.272221 -115.241714 236 23612ft 245kts
18-Apr-20 07:38 34.230047 -115.306592 236 24002ft 252kts
18-Apr-20 07:38 34.193234 -115.363069 235 24028ft 259kts
18-Apr-20 07:40 34.140816 -115.443336 235 24064ft 261kts
18-Apr-20 07:41 34.095819 -115.512121 235 24066ft 262kts
18-Apr-20 07:41 34.058100 -115.569713 236 24055ft 262kts
18-Apr-20 07:42 34.042753 -115.652930 259 24044ft 258kts
18-Apr-20 07:44 34.030288 -115.742187 259 24044ft 259kts
18-Apr-20 07:44 34.020257 -115.813601 259 24037ft 259kts
18-Apr-20 07:45 34.008145 -115.899391 259 24028ft 259kts
18-Apr-20 07:46 33.995973 -115.985205 259 24020ft 259kts
18-Apr-20 07:47 33.983734 -116.071027 259 24011ft 259kts
18-Apr-20 07:48 33.971455 -116.156694 259 24002ft 259kts
18-Apr-20 07:49 33.959930 -116.242407 260 23994ft 259kts
18-Apr-20 07:50 33.949243 -116.328421 260 23991ft 259kts
18-Apr-20 07:51 33.938562 -116.415022 261 23513ft 272kts
18-Apr-20 07:52 33.927166 -116.506903 261 22217ft 281kts
18-Apr-20 07:53 33.914878 -116.603670 260 19952ft 295kts
18-Apr-20 07:54 33.904873 -116.681152 260 19007ft 276kts
18-Apr-20 07:55 33.893590 -116.770559 261 18464ft 271kts
18-Apr-20 07:56 33.883412 -116.863330 262 17137ft 280kts
18-Apr-20 07:57 33.872863 -116.959742 263 15031ft 294kts
18-Apr-20 07:58 33.861970 -117.058263 263 12868ft 289kts
18-Apr-20 07:59 33.851416 -117.153167 264 11347ft 281kts
18-Apr-20 08:00 33.841189 -117.244331 264 10214ft 270kts
18-Apr-20 08:01 33.831016 -117.334462 264 9199ft 272kts
18-Apr-20 08:02 33.821036 -117.422300 264 8176ft 253kts
18-Apr-20 08:03 33.803421 -117.498517 270 7965ft 232kts
18-Apr-20 08:04 33.839050 -117.563570 302 6286ft 235kts
18-Apr-20 08:05 33.874433 -117.628694 302 4399ft 223kts
18-Apr-20 08:06 33.906861 -117.688466 302 3484ft 204kts
18-Apr-20 08:07 33.883976 -117.736621 208 2952ft 211kts
18-Apr-20 08:08 33.834699 -117.767793 209 2880ft 193kts
18-Apr-20 08:09 33.790928 -117.795669 209 2584ft 164kts
18-Apr-20 08:10 33.750720 -117.821220 209 1636ft 161kts
18-Apr-20 08:11 33.714718 -117.844068 209 813ft 113kts
18-Apr-20 08:12 33.691261 -117.858979 209 315ft 88kts
18-Apr-20 08:13 33.673879 -117.869998 207 59ft 36kts
18-Apr-20 08:14 33.669063 -117.871399 110 59ft 0kts
18-Apr-20 08:15 33.669288 -117.870733 39 59ft 12kts
18-Apr-20 08:16 33.671729 -117.867799 76 59ft 7kts
18-Apr-20 08:17 33.672026 -117.867450 203 59ft 0kts
18-Apr-20 08:18 33.672026 -117.867450 203 59ft 0kts
18-Apr-20 08:19 33.672026 -117.867450 203 59ft 0kts
18-Apr-20 08:20 33.672026 -117.867450 203 59ft 0kts
18-Apr-20 08:21 33.672026 -117.867450 203 59ft 0kts

Navigation Log

Ident Type
Flight plan parsing failed, navigation log unavailable